sensor_id;sensor_type;location;lat;lon;timestamp;temperature;humidity
8214;DHT22;4148;47.974;7.824;2022-08-01T00:00:54;21.50;99.90
8214;DHT22;4148;47.974;7.824;2022-08-01T00:03:22;21.60;99.90
8214;DHT22;4148;47.974;7.824;2022-08-01T00:05:50;21.60;99.90
8214;DHT22;4148;47.974;7.824;2022-08-01T00:08:18;21.50;99.90
8214;DHT22;4148;47.974;7.824;2022-08-01T00:10:45;21.60;99.90
8214;DHT22;4148;47.974;7.824;2022-08-01T00:13:13;21.70;99.90
8214;DHT22;4148;47.974;7.824;2022-08-01T00:15:42;21.60;99.90
8214;DHT22;4148;47.974;7.824;2022-08-01T00:18:21;21.60;99.90
8214;DHT22;4148;47.974;7.824;2022-08-01T00:20:49;21.40;99.90
8214;DHT22;4148;47.974;7.824;2022-08-01T00:23:17;21.40;99.90
8214;DHT22;4148;47.974;7.824;2022-08-01T00:25:45;21.40;99.90
8214;DHT22;4148;47.974;7.824;2022-08-01T00:28:13;21.40;99.90
8214;DHT22;4148;47.974;7.824;2022-08-01T00:30:41;21.30;99.90
8214;DHT22;4148;47.974;7.824;2022-08-01T00:33:09;21.20;99.90
8214;DHT22;4148;47.974;7.824;2022-08-01T00:35:38;21.10;99.90
8214;DHT22;4148;47.974;7.824;2022-08-01T00:38:06;21.00;99.90
8214;DHT22;4148;47.974;7.824;2022-08-01T00:40:33;20.90;99.90
8214;DHT22;4148;47.974;7.824;2022-08-01T00:43:01;20.90;99.90
8214;DHT22;4148;47.974;7.824;2022-08-01T00:45:29;20.80;99.90
8214;DHT22;4148;47.974;7.824;2022-08-01T00:47:57;20.80;99.90
8214;DHT22;4148;47.974;7.824;2022-08-01T00:50:25;20.80;99.90
8214;DHT22;4148;47.974;7.824;2022-08-01T00:52:55;20.70;99.90
8214;DHT22;4148;47.974;7.824;2022-08-01T00:55:25;20.70;99.90
8214;DHT22;4148;47.974;7.824;2022-08-01T00:57:53;20.70;99.90
8214;DHT22;4148;47.974;7.824;2022-08-01T01:00:33;20.60;99.90
8214;DHT22;4148;47.974;7.824;2022-08-01T01:03:20;20.60;99.90
8214;DHT22;4148;47.974;7.824;2022-08-01T01:06:05;20.50;99.90
8214;DHT22;4148;47.974;7.824;2022-08-01T01:08:41;20.40;99.90
8214;DHT22;4148;47.974;7.824;2022-08-01T01:11:15;20.50;99.90
8214;DHT22;4148;47.974;7.824;2022-08-01T01:13:51;20.50;99.90
8214;DHT22;4148;47.974;7.824;2022-08-01T01:16:20;20.60;99.90
8214;DHT22;4148;47.974;7.824;2022-08-01T01:18:53;20.60;99.90
8214;DHT22;4148;47.974;7.824;2022-08-01T01:21:39;20.50;99.90
8214;DHT22;4148;47.974;7.824;2022-08-01T01:24:24;20.40;99.90
8214;DHT22;4148;47.974;7.824;2022-08-01T01:27:01;20.50;99.90
8214;DHT22;4148;47.974;7.824;2022-08-01T01:29:38;20.50;99.90
8214;DHT22;4148;47.974;7.824;2022-08-01T01:32:30;20.40;99.90
8214;DHT22;4148;47.974;7.824;2022-08-01T01:35:03;20.30;99.90
8214;DHT22;4148;47.974;7.824;2022-08-01T01:37:33;20.20;99.90
8214;DHT22;4148;47.974;7.824;2022-08-01T01:40:02;20.10;99.90
8214;DHT22;4148;47.974;7.824;2022-08-01T01:42:32;20.10;99.90
8214;DHT22;4148;47.974;7.824;2022-08-01T01:45:03;20.10;99.90
8214;DHT22;4148;47.974;7.824;2022-08-01T01:47:32;20.00;99.90
8214;DHT22;4148;47.974;7.824;2022-08-01T01:50:03;19.90;99.90
8214;DHT22;4148;47.974;7.824;2022-08-01T01:52:31;19.90;99.90
8214;DHT22;4148;47.974;7.824;2022-08-01T01:55:01;19.90;99.90
8214;DHT22;4148;47.974;7.824;2022-08-01T01:57:32;19.80;99.90
8214;DHT22;4148;47.974;7.824;2022-08-01T02:00:05;19.70;99.90
8214;DHT22;4148;47.974;7.824;2022-08-01T02:02:36;19.60;99.90
8214;DHT22;4148;47.974;7.824;2022-08-01T02:05:05;19.60;99.90
8214;DHT22;4148;47.974;7.824;2022-08-01T02:07:34;19.60;99.90
8214;DHT22;4148;47.974;7.824;2022-08-01T02:10:04;19.60;99.90
8214;DHT22;4148;47.974;7.824;2022-08-01T02:12:36;19.60;99.90
8214;DHT22;4148;47.974;7.824;2022-08-01T02:15:08;19.60;99.90
8214;DHT22;4148;47.974;7.824;2022-08-01T02:17:41;19.60;99.90
8214;DHT22;4148;47.974;7.824;2022-08-01T02:20:11;19.60;99.90
8214;DHT22;4148;47.974;7.824;2022-08-01T02:22:42;19.60;99.90
8214;DHT22;4148;47.974;7.824;2022-08-01T02:25:14;19.60;99.90
8214;DHT22;4148;47.974;7.824;2022-08-01T02:27:50;19.70;99.90
8214;DHT22;4148;47.974;7.824;2022-08-01T02:30:19;19.60;99.90
8214;DHT22;4148;47.974;7.824;2022-08-01T02:32:52;19.50;99.90
8214;DHT22;4148;47.974;7.824;2022-08-01T02:35:24;19.40;99.90
8214;DHT22;4148;47.974;7.824;2022-08-01T02:37:53;19.40;99.90
8214;DHT22;4148;47.974;7.824;2022-08-01T02:40:22;19.30;99.90
8214;DHT22;4148;47.974;7.824;2022-08-01T02:42:52;19.30;99.90
8214;DHT22;4148;47.974;7.824;2022-08-01T02:45:25;19.20;1.00
8214;DHT22;4148;47.974;7.824;2022-08-01T02:47:57;19.20;1.00
8214;DHT22;4148;47.974;7.824;2022-08-01T02:50:26;19.10;1.00
8214;DHT22;4148;47.974;7.824;2022-08-01T02:52:57;19.00;1.00
8214;DHT22;4148;47.974;7.824;2022-08-01T02:55:26;19.00;1.00
8214;DHT22;4148;47.974;7.824;2022-08-01T02:57:55;19.00;1.00
8214;DHT22;4148;47.974;7.824;2022-08-01T03:00:28;19.00;1.00
8214;DHT22;4148;47.974;7.824;2022-08-01T03:02:58;19.20;99.90
8214;DHT22;4148;47.974;7.824;2022-08-01T03:05:27;19.10;1.00
8214;DHT22;4148;47.974;7.824;2022-08-01T03:07:56;19.10;1.00
8214;DHT22;4148;47.974;7.824;2022-08-01T03:10:30;19.20;99.90
8214;DHT22;4148;47.974;7.824;2022-08-01T03:13:00;19.10;1.00
8214;DHT22;4148;47.974;7.824;2022-08-01T03:15:32;19.10;1.00
8214;DHT22;4148;47.974;7.824;2022-08-01T03:18:02;19.10;1.00
8214;DHT22;4148;47.974;7.824;2022-08-01T03:20:32;19.00;1.00
8214;DHT22;4148;47.974;7.824;2022-08-01T03:23:03;19.00;1.00
8214;DHT22;4148;47.974;7.824;2022-08-01T03:25:32;18.90;1.00
8214;DHT22;4148;47.974;7.824;2022-08-01T03:28:03;18.90;1.00
8214;DHT22;4148;47.974;7.824;2022-08-01T03:30:36;18.90;1.00
8214;DHT22;4148;47.974;7.824;2022-08-01T03:33:04;18.90;1.00
8214;DHT22;4148;47.974;7.824;2022-08-01T03:35:35;18.90;64.50
8214;DHT22;4148;47.974;7.824;2022-08-01T03:38:05;18.80;15.30
8214;DHT22;4148;47.974;7.824;2022-08-01T03:40:45;18.80;1.00
8214;DHT22;4148;47.974;7.824;2022-08-01T03:43:18;18.80;55.90
8214;DHT22;4148;47.974;7.824;2022-08-01T03:45:50;18.70;85.40
8214;DHT22;4148;47.974;7.824;2022-08-01T03:48:22;18.70;60.40
8214;DHT22;4148;47.974;7.824;2022-08-01T03:50:52;18.70;99.90
8214;DHT22;4148;47.974;7.824;2022-08-01T03:53:23;18.70;99.90
8214;DHT22;4148;47.974;7.824;2022-08-01T03:55:53;18.70;99.90
8214;DHT22;4148;47.974;7.824;2022-08-01T03:58:22;18.60;99.90
8214;DHT22;4148;47.974;7.824;2022-08-01T04:00:51;18.60;99.90
8214;DHT22;4148;47.974;7.824;2022-08-01T04:03:20;18.60;99.90
8214;DHT22;4148;47.974;7.824;2022-08-01T04:05:48;18.60;99.90
8214;DHT22;4148;47.974;7.824;2022-08-01T04:08:15;18.50;99.90
8214;DHT22;4148;47.974;7.824;2022-08-01T04:10:43;18.60;99.90
8214;DHT22;4148;47.974;7.824;2022-08-01T04:13:12;18.60;99.90
8214;DHT22;4148;47.974;7.824;2022-08-01T04:15:40;18.60;99.90
8214;DHT22;4148;47.974;7.824;2022-08-01T04:18:09;18.60;99.90
8214;DHT22;4148;47.974;7.824;2022-08-01T04:20:37;18.70;99.90
8214;DHT22;4148;47.974;7.824;2022-08-01T04:23:06;18.70;99.90
8214;DHT22;4148;47.974;7.824;2022-08-01T04:25:37;18.70;99.90
8214;DHT22;4148;47.974;7.824;2022-08-01T04:28:06;18.90;9.30
8214;DHT22;4148;47.974;7.824;2022-08-01T04:30:38;19.10;1.00
8214;DHT22;4148;47.974;7.824;2022-08-01T04:33:09;19.20;1.00
8214;DHT22;4148;47.974;7.824;2022-08-01T04:35:40;19.20;1.00
8214;DHT22;4148;47.974;7.824;2022-08-01T04:38:29;19.30;1.00
8214;DHT22;4148;47.974;7.824;2022-08-01T04:40:58;19.20;1.00
8214;DHT22;4148;47.974;7.824;2022-08-01T04:43:35;19.10;11.40
8214;DHT22;4148;47.974;7.824;2022-08-01T04:46:03;19.10;99.90
8214;DHT22;4148;47.974;7.824;2022-08-01T04:48:36;19.10;99.90
8214;DHT22;4148;47.974;7.824;2022-08-01T04:51:10;19.10;1.00
8214;DHT22;4148;47.974;7.824;2022-08-01T04:53:38;19.10;11.80
8214;DHT22;4148;47.974;7.824;2022-08-01T04:56:06;19.10;99.90
8214;DHT22;4148;47.974;7.824;2022-08-01T04:58:34;19.10;99.90
8214;DHT22;4148;47.974;7.824;2022-08-01T05:01:02;19.10;99.90
8214;DHT22;4148;47.974;7.824;2022-08-01T05:03:30;19.10;99.90
8214;DHT22;4148;47.974;7.824;2022-08-01T05:06:06;19.20;23.30
8214;DHT22;4148;47.974;7.824;2022-08-01T05:08:34;19.20;27.30
8214;DHT22;4148;47.974;7.824;2022-08-01T05:11:03;19.30;51.70
8214;DHT22;4148;47.974;7.824;2022-08-01T05:13:31;19.30;1.00
8214;DHT22;4148;47.974;7.824;2022-08-01T05:15:59;19.40;4.60
8214;DHT22;4148;47.974;7.824;2022-08-01T05:18:30;19.40;33.20
8214;DHT22;4148;47.974;7.824;2022-08-01T05:20:58;19.40;77.00
8214;DHT22;4148;47.974;7.824;2022-08-01T05:23:27;19.30;99.90
8214;DHT22;4148;47.974;7.824;2022-08-01T05:26:09;19.30;99.90
8214;DHT22;4148;47.974;7.824;2022-08-01T05:28:40;19.30;99.90
8214;DHT22;4148;47.974;7.824;2022-08-01T05:31:08;19.30;99.90
8214;DHT22;4148;47.974;7.824;2022-08-01T05:33:36;19.40;99.90
8214;DHT22;4148;47.974;7.824;2022-08-01T05:36:04;19.40;1.00
8214;DHT22;4148;47.974;7.824;2022-08-01T05:38:34;19.40;1.00
8214;DHT22;4148;47.974;7.824;2022-08-01T05:41:01;19.40;1.00
8214;DHT22;4148;47.974;7.824;2022-08-01T05:43:29;19.40;1.00
8214;DHT22;4148;47.974;7.824;2022-08-01T05:45:57;19.40;37.60
8214;DHT22;4148;47.974;7.824;2022-08-01T05:48:25;19.50;1.00
8214;DHT22;4148;47.974;7.824;2022-08-01T05:50:53;19.50;1.00
8214;DHT22;4148;47.974;7.824;2022-08-01T05:53:24;19.70;99.90
8214;DHT22;4148;47.974;7.824;2022-08-01T05:55:54;19.70;37.00
8214;DHT22;4148;47.974;7.824;2022-08-01T05:58:22;19.80;43.90
8214;DHT22;4148;47.974;7.824;2022-08-01T06:00:50;19.80;10.80
8214;DHT22;4148;47.974;7.824;2022-08-01T06:03:18;19.90;1.00
8214;DHT22;4148;47.974;7.824;2022-08-01T06:05:46;20.00;1.00
8214;DHT22;4148;47.974;7.824;2022-08-01T06:08:14;20.10;1.00
8214;DHT22;4148;47.974;7.824;2022-08-01T06:10:42;20.20;1.00
8214;DHT22;4148;47.974;7.824;2022-08-01T06:13:11;20.20;1.00
8214;DHT22;4148;47.974;7.824;2022-08-01T06:15:39;20.30;1.00
8214;DHT22;4148;47.974;7.824;2022-08-01T06:18:07;20.40;1.00
8214;DHT22;4148;47.974;7.824;2022-08-01T06:20:35;20.40;1.00
8214;DHT22;4148;47.974;7.824;2022-08-01T06:23:03;20.40;1.00
8214;DHT22;4148;47.974;7.824;2022-08-01T06:25:52;20.60;1.00
8214;DHT22;4148;47.974;7.824;2022-08-01T06:28:22;20.70;1.00
8214;DHT22;4148;47.974;7.824;2022-08-01T06:30:50;20.70;1.00
8214;DHT22;4148;47.974;7.824;2022-08-01T06:33:18;20.80;1.00
8214;DHT22;4148;47.974;7.824;2022-08-01T06:35:45;20.80;1.00
8214;DHT22;4148;47.974;7.824;2022-08-01T06:38:13;20.90;1.00
8214;DHT22;4148;47.974;7.824;2022-08-01T06:40:41;20.90;1.00
8214;DHT22;4148;47.974;7.824;2022-08-01T06:43:09;21.00;1.00
8214;DHT22;4148;47.974;7.824;2022-08-01T06:45:39;21.10;1.00
8214;DHT22;4148;47.974;7.824;2022-08-01T06:48:07;21.20;99.90
8214;DHT22;4148;47.974;7.824;2022-08-01T06:50:35;21.30;99.90
8214;DHT22;4148;47.974;7.824;2022-08-01T06:53:03;21.40;99.90
8214;DHT22;4148;47.974;7.824;2022-08-01T06:55:31;21.50;99.90
8214;DHT22;4148;47.974;7.824;2022-08-01T06:57:59;21.60;99.90
8214;DHT22;4148;47.974;7.824;2022-08-01T07:00:27;21.70;99.90
8214;DHT22;4148;47.974;7.824;2022-08-01T07:02:57;21.80;99.90
8214;DHT22;4148;47.974;7.824;2022-08-01T07:05:26;22.00;99.90
8214;DHT22;4148;47.974;7.824;2022-08-01T07:07:54;22.10;99.90
8214;DHT22;4148;47.974;7.824;2022-08-01T07:10:22;22.20;99.90
8214;DHT22;4148;47.974;7.824;2022-08-01T07:12:50;22.40;99.90
8214;DHT22;4148;47.974;7.824;2022-08-01T07:15:18;22.50;99.90
8214;DHT22;4148;47.974;7.824;2022-08-01T07:17:48;22.70;99.90
8214;DHT22;4148;47.974;7.824;2022-08-01T07:20:18;22.90;99.90
8214;DHT22;4148;47.974;7.824;2022-08-01T07:22:46;23.10;99.90
8214;DHT22;4148;47.974;7.824;2022-08-01T07:25:16;23.30;99.90
8214;DHT22;4148;47.974;7.824;2022-08-01T07:27:44;23.40;99.90
8214;DHT22;4148;47.974;7.824;2022-08-01T07:30:13;23.60;99.90
8214;DHT22;4148;47.974;7.824;2022-08-01T07:32:41;23.60;99.90
8214;DHT22;4148;47.974;7.824;2022-08-01T07:35:09;23.80;99.90
8214;DHT22;4148;47.974;7.824;2022-08-01T07:37:39;23.80;99.90
8214;DHT22;4148;47.974;7.824;2022-08-01T07:40:15;24.00;99.90
8214;DHT22;4148;47.974;7.824;2022-08-01T07:42:44;24.10;99.90
8214;DHT22;4148;47.974;7.824;2022-08-01T07:45:13;24.30;99.90
8214;DHT22;4148;47.974;7.824;2022-08-01T07:47:41;24.40;99.90
8214;DHT22;4148;47.974;7.824;2022-08-01T07:50:09;24.60;99.90
8214;DHT22;4148;47.974;7.824;2022-08-01T07:52:38;24.60;99.90
8214;DHT22;4148;47.974;7.824;2022-08-01T07:55:07;24.70;99.90
8214;DHT22;4148;47.974;7.824;2022-08-01T07:57:36;25.00;99.90
8214;DHT22;4148;47.974;7.824;2022-08-01T08:00:05;25.20;99.90
8214;DHT22;4148;47.974;7.824;2022-08-01T08:02:35;25.30;99.90
8214;DHT22;4148;47.974;7.824;2022-08-01T08:05:03;25.60;99.90
8214;DHT22;4148;47.974;7.824;2022-08-01T08:07:31;25.90;99.90
8214;DHT22;4148;47.974;7.824;2022-08-01T08:10:01;26.30;99.90
8214;DHT22;4148;47.974;7.824;2022-08-01T08:12:30;26.70;99.90
8214;DHT22;4148;47.974;7.824;2022-08-01T08:14:58;27.20;99.90
8214;DHT22;4148;47.974;7.824;2022-08-01T08:17:27;27.70;99.90
8214;DHT22;4148;47.974;7.824;2022-08-01T08:20:02;28.40;99.90
8214;DHT22;4148;47.974;7.824;2022-08-01T08:22:35;29.00;99.90
8214;DHT22;4148;47.974;7.824;2022-08-01T08:25:05;29.30;99.90
8214;DHT22;4148;47.974;7.824;2022-08-01T08:27:33;29.50;99.90
8214;DHT22;4148;47.974;7.824;2022-08-01T08:30:04;29.80;99.90
8214;DHT22;4148;47.974;7.824;2022-08-01T08:32:34;29.90;99.90
8214;DHT22;4148;47.974;7.824;2022-08-01T08:35:02;30.50;99.90
8214;DHT22;4148;47.974;7.824;2022-08-01T08:37:32;30.90;99.90
8214;DHT22;4148;47.974;7.824;2022-08-01T08:40:10;31.20;99.90
8214;DHT22;4148;47.974;7.824;2022-08-01T08:42:40;31.60;99.90
8214;DHT22;4148;47.974;7.824;2022-08-01T08:45:10;31.90;99.90
8214;DHT22;4148;47.974;7.824;2022-08-01T08:47:39;32.40;99.90
8214;DHT22;4148;47.974;7.824;2022-08-01T08:50:09;32.60;99.90
8214;DHT22;4148;47.974;7.824;2022-08-01T08:52:38;32.70;99.90
8214;DHT22;4148;47.974;7.824;2022-08-01T08:57:42;32.70;99.90
8214;DHT22;4148;47.974;7.824;2022-08-01T09:00:13;33.00;99.90
8214;DHT22;4148;47.974;7.824;2022-08-01T09:02:43;33.00;99.90
8214;DHT22;4148;47.974;7.824;2022-08-01T09:05:13;32.60;99.90
8214;DHT22;4148;47.974;7.824;2022-08-01T09:07:45;32.90;99.90
8214;DHT22;4148;47.974;7.824;2022-08-01T09:10:13;33.50;99.90
8214;DHT22;4148;47.974;7.824;2022-08-01T09:13:09;33.40;99.90
8214;DHT22;4148;47.974;7.824;2022-08-01T09:15:39;33.50;99.90
8214;DHT22;4148;47.974;7.824;2022-08-01T09:18:08;33.40;99.90
8214;DHT22;4148;47.974;7.824;2022-08-01T09:20:36;33.80;99.90
8214;DHT22;4148;47.974;7.824;2022-08-01T09:23:04;33.90;99.90
8214;DHT22;4148;47.974;7.824;2022-08-01T09:25:50;34.00;99.90
8214;DHT22;4148;47.974;7.824;2022-08-01T09:28:28;34.10;99.90
8214;DHT22;4148;47.974;7.824;2022-08-01T09:30:57;34.10;99.90
8214;DHT22;4148;47.974;7.824;2022-08-01T09:33:25;34.50;99.90
8214;DHT22;4148;47.974;7.824;2022-08-01T09:35:56;34.40;99.90
8214;DHT22;4148;47.974;7.824;2022-08-01T09:38:26;34.60;99.90
8214;DHT22;4148;47.974;7.824;2022-08-01T09:40:58;34.50;99.90
8214;DHT22;4148;47.974;7.824;2022-08-01T09:43:30;34.80;99.90
8214;DHT22;4148;47.974;7.824;2022-08-01T09:45:59;34.90;99.90
8214;DHT22;4148;47.974;7.824;2022-08-01T09:48:27;34.60;99.90
8214;DHT22;4148;47.974;7.824;2022-08-01T09:50:57;34.90;99.90
8214;DHT22;4148;47.974;7.824;2022-08-01T09:53:40;34.70;99.90
8214;DHT22;4148;47.974;7.824;2022-08-01T09:56:17;34.60;99.90
8214;DHT22;4148;47.974;7.824;2022-08-01T09:58:54;34.80;99.90
8214;DHT22;4148;47.974;7.824;2022-08-01T10:01:39;34.90;99.90
8214;DHT22;4148;47.974;7.824;2022-08-01T10:04:10;34.90;99.90
8214;DHT22;4148;47.974;7.824;2022-08-01T10:06:39;34.80;99.90
8214;DHT22;4148;47.974;7.824;2022-08-01T10:09:10;34.80;99.90
8214;DHT22;4148;47.974;7.824;2022-08-01T10:11:40;35.20;99.90
8214;DHT22;4148;47.974;7.824;2022-08-01T10:14:12;35.40;99.90
8214;DHT22;4148;47.974;7.824;2022-08-01T10:16:44;35.00;99.90
8214;DHT22;4148;47.974;7.824;2022-08-01T10:19:21;35.20;99.90
8214;DHT22;4148;47.974;7.824;2022-08-01T10:21:50;35.00;99.90
8214;DHT22;4148;47.974;7.824;2022-08-01T10:24:27;35.10;99.90
8214;DHT22;4148;47.974;7.824;2022-08-01T10:26:57;34.90;99.90
8214;DHT22;4148;47.974;7.824;2022-08-01T10:29:43;34.90;99.90
8214;DHT22;4148;47.974;7.824;2022-08-01T10:32:34;34.90;99.90
8214;DHT22;4148;47.974;7.824;2022-08-01T10:35:06;35.20;99.90
8214;DHT22;4148;47.974;7.824;2022-08-01T10:37:41;35.60;99.90
8214;DHT22;4148;47.974;7.824;2022-08-01T10:40:19;35.80;99.90
8214;DHT22;4148;47.974;7.824;2022-08-01T10:42:57;35.90;99.90
8214;DHT22;4148;47.974;7.824;2022-08-01T10:45:27;35.90;99.90
8214;DHT22;4148;47.974;7.824;2022-08-01T10:47:59;35.90;99.90
8214;DHT22;4148;47.974;7.824;2022-08-01T10:50:33;36.20;99.90
8214;DHT22;4148;47.974;7.824;2022-08-01T10:53:14;36.30;99.90
8214;DHT22;4148;47.974;7.824;2022-08-01T10:55:51;36.40;99.90
8214;DHT22;4148;47.974;7.824;2022-08-01T10:58:22;36.20;99.90
8214;DHT22;4148;47.974;7.824;2022-08-01T11:01:22;36.20;99.90
8214;DHT22;4148;47.974;7.824;2022-08-01T11:04:08;36.20;99.90
8214;DHT22;4148;47.974;7.824;2022-08-01T11:07:01;36.40;99.90
8214;DHT22;4148;47.974;7.824;2022-08-01T11:09:39;36.70;99.90
8214;DHT22;4148;47.974;7.824;2022-08-01T11:12:09;36.50;99.90
8214;DHT22;4148;47.974;7.824;2022-08-01T11:15:17;36.40;99.90
8214;DHT22;4148;47.974;7.824;2022-08-01T11:17:59;35.70;99.90
8214;DHT22;4148;47.974;7.824;2022-08-01T11:20:29;36.10;99.90
8214;DHT22;4148;47.974;7.824;2022-08-01T11:23:25;35.80;99.90
8214;DHT22;4148;47.974;7.824;2022-08-01T11:26:12;36.20;99.90
8214;DHT22;4148;47.974;7.824;2022-08-01T11:28:45;36.20;99.90
8214;DHT22;4148;47.974;7.824;2022-08-01T11:31:33;35.90;99.90
8214;DHT22;4148;47.974;7.824;2022-08-01T11:34:05;35.50;99.90
8214;DHT22;4148;47.974;7.824;2022-08-01T11:36:33;35.50;99.90
8214;DHT22;4148;47.974;7.824;2022-08-01T11:39:22;35.40;99.90
8214;DHT22;4148;47.974;7.824;2022-08-01T11:41:50;35.20;99.90
8214;DHT22;4148;47.974;7.824;2022-08-01T11:44:21;34.90;99.90
8214;DHT22;4148;47.974;7.824;2022-08-01T11:47:01;35.00;99.90
8214;DHT22;4148;47.974;7.824;2022-08-01T11:49:47;34.60;99.90
8214;DHT22;4148;47.974;7.824;2022-08-01T11:52:19;34.40;99.90
8214;DHT22;4148;47.974;7.824;2022-08-01T11:54:52;34.20;99.90
8214;DHT22;4148;47.974;7.824;2022-08-01T11:57:23;34.20;99.90
8214;DHT22;4148;47.974;7.824;2022-08-01T12:00:03;34.30;99.90
8214;DHT22;4148;47.974;7.824;2022-08-01T12:02:34;34.50;99.90
8214;DHT22;4148;47.974;7.824;2022-08-01T12:05:06;34.40;99.90
8214;DHT22;4148;47.974;7.824;2022-08-01T12:07:39;34.00;99.90
8214;DHT22;4148;47.974;7.824;2022-08-01T12:10:08;33.90;99.90
8214;DHT22;4148;47.974;7.824;2022-08-01T12:12:42;34.00;99.90
8214;DHT22;4148;47.974;7.824;2022-08-01T12:15:12;34.10;99.90
8214;DHT22;4148;47.974;7.824;2022-08-01T12:17:41;33.90;99.90
8214;DHT22;4148;47.974;7.824;2022-08-01T12:20:28;34.00;99.90
8214;DHT22;4148;47.974;7.824;2022-08-01T12:22:59;34.20;99.90
8214;DHT22;4148;47.974;7.824;2022-08-01T12:25:28;34.00;99.90
8214;DHT22;4148;47.974;7.824;2022-08-01T12:28:00;33.90;99.90
8214;DHT22;4148;47.974;7.824;2022-08-01T12:30:28;33.60;99.90
8214;DHT22;4148;47.974;7.824;2022-08-01T12:32:58;33.50;99.90
8214;DHT22;4148;47.974;7.824;2022-08-01T12:35:28;33.20;99.90
8214;DHT22;4148;47.974;7.824;2022-08-01T12:37:58;32.70;99.90
8214;DHT22;4148;47.974;7.824;2022-08-01T12:40:29;32.60;99.90
8214;DHT22;4148;47.974;7.824;2022-08-01T12:42:59;32.70;99.90
8214;DHT22;4148;47.974;7.824;2022-08-01T12:45:31;32.80;99.90
8214;DHT22;4148;47.974;7.824;2022-08-01T12:48:01;32.80;99.90
8214;DHT22;4148;47.974;7.824;2022-08-01T12:50:32;32.80;99.90
8214;DHT22;4148;47.974;7.824;2022-08-01T12:53:00;32.70;99.90
8214;DHT22;4148;47.974;7.824;2022-08-01T12:55:32;32.50;99.90
8214;DHT22;4148;47.974;7.824;2022-08-01T12:58:05;32.40;99.90
8214;DHT22;4148;47.974;7.824;2022-08-01T13:00:43;32.20;99.90
8214;DHT22;4148;47.974;7.824;2022-08-01T13:03:14;31.90;99.90
8214;DHT22;4148;47.974;7.824;2022-08-01T13:05:45;32.10;99.90
8214;DHT22;4148;47.974;7.824;2022-08-01T13:08:14;32.30;99.90
8214;DHT22;4148;47.974;7.824;2022-08-01T13:10:43;32.30;99.90
8214;DHT22;4148;47.974;7.824;2022-08-01T13:13:12;32.40;99.90
8214;DHT22;4148;47.974;7.824;2022-08-01T13:16:03;32.30;99.90
8214;DHT22;4148;47.974;7.824;2022-08-01T13:18:33;32.20;99.90
8214;DHT22;4148;47.974;7.824;2022-08-01T13:21:10;32.20;99.90
8214;DHT22;4148;47.974;7.824;2022-08-01T13:23:38;32.20;99.90
8214;DHT22;4148;47.974;7.824;2022-08-01T13:26:40;32.30;99.90
8214;DHT22;4148;47.974;7.824;2022-08-01T13:29:10;32.20;99.90
8214;DHT22;4148;47.974;7.824;2022-08-01T13:31:39;31.90;99.90
8214;DHT22;4148;47.974;7.824;2022-08-01T13:34:08;31.80;99.90
8214;DHT22;4148;47.974;7.824;2022-08-01T13:36:39;31.80;99.90
8214;DHT22;4148;47.974;7.824;2022-08-01T13:39:14;32.00;99.90
8214;DHT22;4148;47.974;7.824;2022-08-01T13:41:59;32.00;99.90
8214;DHT22;4148;47.974;7.824;2022-08-01T13:44:27;31.90;99.90
8214;DHT22;4148;47.974;7.824;2022-08-01T13:46:55;32.00;99.90
8214;DHT22;4148;47.974;7.824;2022-08-01T13:49:23;32.10;99.90
8214;DHT22;4148;47.974;7.824;2022-08-01T13:52:05;32.00;99.90
8214;DHT22;4148;47.974;7.824;2022-08-01T13:54:34;31.90;99.90
8214;DHT22;4148;47.974;7.824;2022-08-01T13:57:04;31.60;99.90
8214;DHT22;4148;47.974;7.824;2022-08-01T13:59:33;31.60;99.90
8214;DHT22;4148;47.974;7.824;2022-08-01T14:02:01;31.60;99.90
8214;DHT22;4148;47.974;7.824;2022-08-01T14:04:29;31.50;99.90
8214;DHT22;4148;47.974;7.824;2022-08-01T14:06:57;31.60;99.90
8214;DHT22;4148;47.974;7.824;2022-08-01T14:09:34;31.60;99.90
8214;DHT22;4148;47.974;7.824;2022-08-01T14:12:10;31.50;99.90
8214;DHT22;4148;47.974;7.824;2022-08-01T14:14:39;31.60;99.90
8214;DHT22;4148;47.974;7.824;2022-08-01T14:17:08;31.60;99.90
8214;DHT22;4148;47.974;7.824;2022-08-01T14:19:37;31.70;99.90
8214;DHT22;4148;47.974;7.824;2022-08-01T14:22:11;31.80;99.90
8214;DHT22;4148;47.974;7.824;2022-08-01T14:24:40;31.80;99.90
8214;DHT22;4148;47.974;7.824;2022-08-01T14:27:08;31.70;99.90
8214;DHT22;4148;47.974;7.824;2022-08-01T14:29:36;31.70;99.90
8214;DHT22;4148;47.974;7.824;2022-08-01T14:32:24;31.60;99.90
8214;DHT22;4148;47.974;7.824;2022-08-01T14:34:54;31.60;99.90
8214;DHT22;4148;47.974;7.824;2022-08-01T14:37:22;31.40;99.90
8214;DHT22;4148;47.974;7.824;2022-08-01T14:39:57;31.30;99.90
8214;DHT22;4148;47.974;7.824;2022-08-01T14:42:25;31.30;99.90
8214;DHT22;4148;47.974;7.824;2022-08-01T14:44:53;31.20;99.90
8214;DHT22;4148;47.974;7.824;2022-08-01T14:47:21;31.10;99.90
8214;DHT22;4148;47.974;7.824;2022-08-01T14:49:49;31.00;99.90
8214;DHT22;4148;47.974;7.824;2022-08-01T14:52:17;31.00;99.90
8214;DHT22;4148;47.974;7.824;2022-08-01T14:54:46;30.90;99.90
8214;DHT22;4148;47.974;7.824;2022-08-01T14:57:15;30.80;99.90
8214;DHT22;4148;47.974;7.824;2022-08-01T14:59:44;30.80;99.90
8214;DHT22;4148;47.974;7.824;2022-08-01T15:02:12;30.80;99.90
8214;DHT22;4148;47.974;7.824;2022-08-01T15:04:43;30.80;99.90
8214;DHT22;4148;47.974;7.824;2022-08-01T15:07:11;30.90;99.90
8214;DHT22;4148;47.974;7.824;2022-08-01T15:09:39;31.00;99.90
8214;DHT22;4148;47.974;7.824;2022-08-01T15:12:08;31.20;99.90
8214;DHT22;4148;47.974;7.824;2022-08-01T15:14:38;31.30;99.90
8214;DHT22;4148;47.974;7.824;2022-08-01T15:17:15;31.20;99.90
8214;DHT22;4148;47.974;7.824;2022-08-01T15:19:43;31.00;99.90
8214;DHT22;4148;47.974;7.824;2022-08-01T15:22:11;31.00;99.90
8214;DHT22;4148;47.974;7.824;2022-08-01T15:24:39;31.10;99.90
8214;DHT22;4148;47.974;7.824;2022-08-01T15:27:07;31.00;99.90
8214;DHT22;4148;47.974;7.824;2022-08-01T15:29:35;30.80;99.90
8214;DHT22;4148;47.974;7.824;2022-08-01T15:32:06;30.80;99.90
8214;DHT22;4148;47.974;7.824;2022-08-01T15:34:35;30.80;99.90
8214;DHT22;4148;47.974;7.824;2022-08-01T15:37:03;30.80;99.90
8214;DHT22;4148;47.974;7.824;2022-08-01T15:39:32;30.80;99.90
8214;DHT22;4148;47.974;7.824;2022-08-01T15:42:04;30.90;99.90
8214;DHT22;4148;47.974;7.824;2022-08-01T15:44:32;30.90;99.90
8214;DHT22;4148;47.974;7.824;2022-08-01T15:47:01;30.90;99.90
8214;DHT22;4148;47.974;7.824;2022-08-01T15:49:31;30.80;99.90
8214;DHT22;4148;47.974;7.824;2022-08-01T15:52:01;30.90;99.90
8214;DHT22;4148;47.974;7.824;2022-08-01T15:54:29;30.80;99.90
8214;DHT22;4148;47.974;7.824;2022-08-01T15:56:57;30.70;99.90
8214;DHT22;4148;47.974;7.824;2022-08-01T15:59:25;30.60;99.90
8214;DHT22;4148;47.974;7.824;2022-08-01T16:01:53;30.60;99.90
8214;DHT22;4148;47.974;7.824;2022-08-01T16:04:21;30.50;99.90
8214;DHT22;4148;47.974;7.824;2022-08-01T16:06:57;30.50;99.90
8214;DHT22;4148;47.974;7.824;2022-08-01T16:09:24;30.40;99.90
8214;DHT22;4148;47.974;7.824;2022-08-01T16:11:53;30.40;99.90
8214;DHT22;4148;47.974;7.824;2022-08-01T16:14:20;30.20;99.90
8214;DHT22;4148;47.974;7.824;2022-08-01T16:16:48;30.10;99.90
8214;DHT22;4148;47.974;7.824;2022-08-01T16:19:16;30.00;99.90
8214;DHT22;4148;47.974;7.824;2022-08-01T16:21:45;30.00;99.90
8214;DHT22;4148;47.974;7.824;2022-08-01T16:24:15;29.90;99.90
8214;DHT22;4148;47.974;7.824;2022-08-01T16:26:42;29.80;99.90
8214;DHT22;4148;47.974;7.824;2022-08-01T16:29:10;29.70;99.90
8214;DHT22;4148;47.974;7.824;2022-08-01T16:31:38;29.70;99.90
8214;DHT22;4148;47.974;7.824;2022-08-01T16:34:26;29.70;99.90